sensor_id;sensor_type;location;lat;lon;timestamp;P1;durP1;ratioP1;P2;durP2;ratioP2
43998;SDS011;51319;52.162;5.302;2023-05-10T00:01:41;71.95;;;31.05;;
43998;SDS011;51319;52.162;5.302;2023-05-10T00:04:08;69.63;;;28.50;;
43998;SDS011;51319;52.162;5.302;2023-05-10T00:06:35;73.22;;;29.95;;
43998;SDS011;51319;52.162;5.302;2023-05-10T00:09:02;70.18;;;29.55;;
43998;SDS011;51319;52.162;5.302;2023-05-10T00:11:29;68.32;;;29.23;;
43998;SDS011;51319;52.162;5.302;2023-05-10T00:13:56;79.78;;;30.48;;
43998;SDS011;51319;52.162;5.302;2023-05-10T00:16:23;74.95;;;31.17;;
43998;SDS011;51319;52.162;5.302;2023-05-10T00:18:50;67.28;;;29.85;;
43998;SDS011;51319;52.162;5.302;2023-05-10T00:21:17;78.97;;;32.55;;
43998;SDS011;51319;52.162;5.302;2023-05-10T00:23:44;74.43;;;30.67;;
43998;SDS011;51319;52.162;5.302;2023-05-10T00:26:10;68.70;;;28.95;;
43998;SDS011;51319;52.162;5.302;2023-05-10T00:28:37;80.75;;;32.72;;
43998;SDS011;51319;52.162;5.302;2023-05-10T00:31:04;74.55;;;30.92;;
43998;SDS011;51319;52.162;5.302;2023-05-10T00:33:31;73.97;;;32.47;;
43998;SDS011;51319;52.162;5.302;2023-05-10T00:35:58;91.65;;;33.20;;
43998;SDS011;51319;52.162;5.302;2023-05-10T00:38:25;77.55;;;32.10;;
43998;SDS011;51319;52.162;5.302;2023-05-10T00:40:52;74.35;;;31.95;;
43998;SDS011;51319;52.162;5.302;2023-05-10T00:43:19;90.00;;;32.38;;
43998;SDS011;51319;52.162;5.302;2023-05-10T00:45:45;79.47;;;31.48;;
43998;SDS011;51319;52.162;5.302;2023-05-10T00:48:12;83.18;;;32.85;;
43998;SDS011;51319;52.162;5.302;2023-05-10T00:50:43;85.78;;;34.75;;
43998;SDS011;51319;52.162;5.302;2023-05-10T00:53:10;94.78;;;38.00;;
43998;SDS011;51319;52.162;5.302;2023-05-10T00:55:38;103.90;;;41.45;;
43998;SDS011;51319;52.162;5.302;2023-05-10T00:58:05;121.22;;;42.90;;
43998;SDS011;51319;52.162;5.302;2023-05-10T01:00:32;111.57;;;43.85;;
43998;SDS011;51319;52.162;5.302;2023-05-10T01:03:00;113.13;;;44.00;;
43998;SDS011;51319;52.162;5.302;2023-05-10T01:05:28;122.70;;;47.25;;
43998;SDS011;51319;52.162;5.302;2023-05-10T01:07:54;120.28;;;46.80;;
43998;SDS011;51319;52.162;5.302;2023-05-10T01:10:22;123.32;;;46.03;;
43998;SDS011;51319;52.162;5.302;2023-05-10T01:12:49;125.10;;;48.35;;
43998;SDS011;51319;52.162;5.302;2023-05-10T01:15:17;122.40;;;50.03;;
43998;SDS011;51319;52.162;5.302;2023-05-10T01:17:46;129.55;;;50.85;;
43998;SDS011;51319;52.162;5.302;2023-05-10T01:20:15;135.93;;;52.65;;
43998;SDS011;51319;52.162;5.302;2023-05-10T01:34:41;148.00;;;53.75;;
43998;SDS011;51319;52.162;5.302;2023-05-10T01:37:31;157.45;;;54.22;;
43998;SDS011;51319;52.162;5.302;2023-05-10T01:40:15;157.05;;;53.90;;
43998;SDS011;51319;52.162;5.302;2023-05-10T01:42:59;155.65;;;54.38;;
43998;SDS011;51319;52.162;5.302;2023-05-10T01:45:41;147.32;;;53.33;;
43998;SDS011;51319;52.162;5.302;2023-05-10T01:48:17;154.23;;;52.83;;
43998;SDS011;51319;52.162;5.302;2023-05-10T01:50:46;181.68;;;58.35;;
43998;SDS011;51319;52.162;5.302;2023-05-10T01:53:14;159.75;;;52.33;;
43998;SDS011;51319;52.162;5.302;2023-05-10T01:55:46;161.60;;;55.30;;
43998;SDS011;51319;52.162;5.302;2023-05-10T01:58:20;163.38;;;55.30;;
43998;SDS011;51319;52.162;5.302;2023-05-10T02:00:50;169.45;;;55.38;;
43998;SDS011;51319;52.162;5.302;2023-05-10T02:03:20;170.35;;;54.47;;
43998;SDS011;51319;52.162;5.302;2023-05-10T02:05:49;168.27;;;54.50;;
43998;SDS011;51319;52.162;5.302;2023-05-10T02:08:18;194.05;;;55.28;;
43998;SDS011;51319;52.162;5.302;2023-05-10T02:10:46;171.57;;;52.65;;
43998;SDS011;51319;52.162;5.302;2023-05-10T02:13:15;182.40;;;57.38;;
43998;SDS011;51319;52.162;5.302;2023-05-10T02:15:45;165.90;;;53.85;;
43998;SDS011;51319;52.162;5.302;2023-05-10T02:18:14;177.40;;;56.13;;
43998;SDS011;51319;52.162;5.302;2023-05-10T02:20:43;179.25;;;54.50;;
43998;SDS011;51319;52.162;5.302;2023-05-10T02:23:13;188.60;;;54.58;;
43998;SDS011;51319;52.162;5.302;2023-05-10T02:25:43;178.45;;;56.58;;
43998;SDS011;51319;52.162;5.302;2023-05-10T02:28:11;166.90;;;51.83;;
43998;SDS011;51319;52.162;5.302;2023-05-10T02:30:39;170.07;;;52.95;;
43998;SDS011;51319;52.162;5.302;2023-05-10T02:33:06;156.00;;;53.17;;
43998;SDS011;51319;52.162;5.302;2023-05-10T02:35:34;170.07;;;55.80;;
43998;SDS011;51319;52.162;5.302;2023-05-10T02:38:02;173.63;;;52.03;;
43998;SDS011;51319;52.162;5.302;2023-05-10T02:40:30;160.95;;;51.97;;
43998;SDS011;51319;52.162;5.302;2023-05-10T02:42:58;168.75;;;52.63;;
43998;SDS011;51319;52.162;5.302;2023-05-10T02:45:28;176.82;;;55.13;;
43998;SDS011;51319;52.162;5.302;2023-05-10T02:47:57;162.95;;;51.75;;
43998;SDS011;51319;52.162;5.302;2023-05-10T02:50:25;172.57;;;52.03;;
43998;SDS011;51319;52.162;5.302;2023-05-10T02:52:56;192.63;;;54.70;;
43998;SDS011;51319;52.162;5.302;2023-05-10T02:55:31;182.88;;;53.70;;
43998;SDS011;51319;52.162;5.302;2023-05-10T02:58:01;173.32;;;50.65;;
43998;SDS011;51319;52.162;5.302;2023-05-10T03:00:29;189.45;;;55.17;;
43998;SDS011;51319;52.162;5.302;2023-05-10T03:02:56;167.68;;;50.88;;
43998;SDS011;51319;52.162;5.302;2023-05-10T03:05:23;170.10;;;52.65;;
43998;SDS011;51319;52.162;5.302;2023-05-10T03:07:50;175.68;;;52.75;;
43998;SDS011;51319;52.162;5.302;2023-05-10T03:10:18;159.43;;;51.80;;
43998;SDS011;51319;52.162;5.302;2023-05-10T03:15:33;164.35;;;50.38;;
43998;SDS011;51319;52.162;5.302;2023-05-10T03:21:08;177.85;;;53.03;;
43998;SDS011;51319;52.162;5.302;2023-05-10T03:23:49;191.77;;;53.65;;
43998;SDS011;51319;52.162;5.302;2023-05-10T03:26:20;197.88;;;56.47;;
43998;SDS011;51319;52.162;5.302;2023-05-10T03:28:52;203.95;;;58.15;;
43998;SDS011;51319;52.162;5.302;2023-05-10T03:31:19;185.57;;;56.50;;
43998;SDS011;51319;52.162;5.302;2023-05-10T03:33:51;188.85;;;57.58;;
43998;SDS011;51319;52.162;5.302;2023-05-10T03:36:18;206.20;;;58.08;;
43998;SDS011;51319;52.162;5.302;2023-05-10T03:38:45;194.35;;;58.17;;
43998;SDS011;51319;52.162;5.302;2023-05-10T03:41:12;208.75;;;58.60;;
43998;SDS011;51319;52.162;5.302;2023-05-10T03:43:40;207.45;;;60.72;;
43998;SDS011;51319;52.162;5.302;2023-05-10T03:46:07;212.90;;;59.05;;
43998;SDS011;51319;52.162;5.302;2023-05-10T03:48:34;200.48;;;60.72;;
43998;SDS011;51319;52.162;5.302;2023-05-10T03:51:01;195.23;;;60.20;;
43998;SDS011;51319;52.162;5.302;2023-05-10T03:53:28;191.10;;;59.20;;
43998;SDS011;51319;52.162;5.302;2023-05-10T03:55:55;196.88;;;60.28;;
43998;SDS011;51319;52.162;5.302;2023-05-10T03:58:22;201.43;;;60.72;;
43998;SDS011;51319;52.162;5.302;2023-05-10T04:00:49;179.55;;;56.05;;
43998;SDS011;51319;52.162;5.302;2023-05-10T04:03:17;190.00;;;58.25;;
43998;SDS011;51319;52.162;5.302;2023-05-10T04:05:44;221.10;;;62.40;;
43998;SDS011;51319;52.162;5.302;2023-05-10T04:08:11;225.82;;;63.80;;
43998;SDS011;51319;52.162;5.302;2023-05-10T04:10:38;204.50;;;61.10;;
43998;SDS011;51319;52.162;5.302;2023-05-10T04:13:05;211.35;;;60.58;;
43998;SDS011;51319;52.162;5.302;2023-05-10T04:15:32;198.68;;;59.85;;
43998;SDS011;51319;52.162;5.302;2023-05-10T04:17:59;199.02;;;59.60;;
43998;SDS011;51319;52.162;5.302;2023-05-10T04:20:27;189.77;;;58.92;;
43998;SDS011;51319;52.162;5.302;2023-05-10T04:22:54;210.75;;;60.97;;
43998;SDS011;51319;52.162;5.302;2023-05-10T04:25:21;191.07;;;59.38;;
43998;SDS011;51319;52.162;5.302;2023-05-10T04:27:47;201.70;;;61.53;;
43998;SDS011;51319;52.162;5.302;2023-05-10T04:30:14;163.63;;;53.08;;
43998;SDS011;51319;52.162;5.302;2023-05-10T04:32:41;166.98;;;55.83;;
43998;SDS011;51319;52.162;5.302;2023-05-10T04:35:08;160.98;;;54.40;;
43998;SDS011;51319;52.162;5.302;2023-05-10T04:37:37;178.43;;;54.70;;
43998;SDS011;51319;52.162;5.302;2023-05-10T04:40:04;186.63;;;60.08;;
43998;SDS011;51319;52.162;5.302;2023-05-10T04:42:32;183.77;;;58.85;;
43998;SDS011;51319;52.162;5.302;2023-05-10T04:44:59;176.07;;;57.40;;
43998;SDS011;51319;52.162;5.302;2023-05-10T04:47:26;174.90;;;57.67;;
43998;SDS011;51319;52.162;5.302;2023-05-10T04:49:53;184.35;;;58.75;;
43998;SDS011;51319;52.162;5.302;2023-05-10T04:52:20;200.60;;;60.75;;
43998;SDS011;51319;52.162;5.302;2023-05-10T04:54:47;164.70;;;55.80;;
43998;SDS011;51319;52.162;5.302;2023-05-10T04:57:15;172.50;;;56.45;;
43998;SDS011;51319;52.162;5.302;2023-05-10T04:59:41;170.75;;;56.35;;
43998;SDS011;51319;52.162;5.302;2023-05-10T05:02:08;191.90;;;59.70;;
43998;SDS011;51319;52.162;5.302;2023-05-10T05:04:35;177.60;;;56.47;;
43998;SDS011;51319;52.162;5.302;2023-05-10T05:07:02;168.60;;;55.95;;
43998;SDS011;51319;52.162;5.302;2023-05-10T05:09:29;197.52;;;59.95;;
43998;SDS011;51319;52.162;5.302;2023-05-10T05:12:01;198.40;;;58.42;;
43998;SDS011;51319;52.162;5.302;2023-05-10T05:14:28;189.38;;;59.47;;
43998;SDS011;51319;52.162;5.302;2023-05-10T05:16:55;154.18;;;52.67;;
43998;SDS011;51319;52.162;5.302;2023-05-10T05:19:22;156.65;;;54.22;;
43998;SDS011;51319;52.162;5.302;2023-05-10T05:21:49;158.45;;;54.40;;
43998;SDS011;51319;52.162;5.302;2023-05-10T05:24:16;149.32;;;51.05;;
43998;SDS011;51319;52.162;5.302;2023-05-10T05:26:43;142.77;;;51.75;;
43998;SDS011;51319;52.162;5.302;2023-05-10T05:29:10;140.70;;;50.08;;
43998;SDS011;51319;52.162;5.302;2023-05-10T05:31:37;141.27;;;50.85;;
43998;SDS011;51319;52.162;5.302;2023-05-10T05:34:04;117.63;;;46.35;;
43998;SDS011;51319;52.162;5.302;2023-05-10T05:36:31;118.22;;;46.78;;
43998;SDS011;51319;52.162;5.302;2023-05-10T05:38:57;132.90;;;48.45;;
43998;SDS011;51319;52.162;5.302;2023-05-10T05:41:24;115.30;;;46.13;;
43998;SDS011;51319;52.162;5.302;2023-05-10T05:43:52;108.60;;;45.20;;
43998;SDS011;51319;52.162;5.302;2023-05-10T05:46:19;113.85;;;44.78;;
43998;SDS011;51319;52.162;5.302;2023-05-10T05:48:46;109.70;;;46.25;;
43998;SDS011;51319;52.162;5.302;2023-05-10T05:51:14;106.40;;;45.42;;
43998;SDS011;51319;52.162;5.302;2023-05-10T05:53:41;111.25;;;45.13;;
43998;SDS011;51319;52.162;5.302;2023-05-10T05:56:08;106.18;;;44.70;;
43998;SDS011;51319;52.162;5.302;2023-05-10T05:58:35;111.03;;;46.13;;
43998;SDS011;51319;52.162;5.302;2023-05-10T06:01:02;92.82;;;40.85;;
43998;SDS011;51319;52.162;5.302;2023-05-10T06:03:29;85.60;;;39.45;;
43998;SDS011;51319;52.162;5.302;2023-05-10T06:05:56;77.63;;;36.08;;
43998;SDS011;51319;52.162;5.302;2023-05-10T06:08:23;70.22;;;32.88;;
43998;SDS011;51319;52.162;5.302;2023-05-10T06:10:50;68.43;;;31.17;;
43998;SDS011;51319;52.162;5.302;2023-05-10T06:13:17;64.68;;;29.67;;
43998;SDS011;51319;52.162;5.302;2023-05-10T06:15:44;58.35;;;29.08;;
43998;SDS011;51319;52.162;5.302;2023-05-10T06:18:11;57.08;;;27.38;;
43998;SDS011;51319;52.162;5.302;2023-05-10T06:20:38;60.97;;;27.42;;
43998;SDS011;51319;52.162;5.302;2023-05-10T06:23:07;58.92;;;27.45;;
43998;SDS011;51319;52.162;5.302;2023-05-10T06:25:33;55.58;;;26.15;;
43998;SDS011;51319;52.162;5.302;2023-05-10T06:28:00;54.70;;;25.58;;
43998;SDS011;51319;52.162;5.302;2023-05-10T06:30:28;45.53;;;23.95;;
43998;SDS011;51319;52.162;5.302;2023-05-10T06:32:55;49.50;;;23.75;;
43998;SDS011;51319;52.162;5.302;2023-05-10T06:35:22;46.55;;;22.90;;
43998;SDS011;51319;52.162;5.302;2023-05-10T06:37:50;43.70;;;21.05;;
43998;SDS011;51319;52.162;5.302;2023-05-10T06:40:17;33.45;;;19.00;;
43998;SDS011;51319;52.162;5.302;2023-05-10T06:42:45;39.05;;;20.45;;
43998;SDS011;51319;52.162;5.302;2023-05-10T06:45:14;32.53;;;18.83;;
43998;SDS011;51319;52.162;5.302;2023-05-10T06:47:42;36.53;;;18.48;;
43998;SDS011;51319;52.162;5.302;2023-05-10T06:50:10;37.85;;;17.85;;
43998;SDS011;51319;52.162;5.302;2023-05-10T06:52:39;33.58;;;17.70;;
43998;SDS011;51319;52.162;5.302;2023-05-10T06:55:09;35.20;;;18.42;;
43998;SDS011;51319;52.162;5.302;2023-05-10T06:57:36;34.00;;;19.02;;
43998;SDS011;51319;52.162;5.302;2023-05-10T07:00:03;36.58;;;20.33;;
43998;SDS011;51319;52.162;5.302;2023-05-10T07:02:31;34.38;;;18.10;;
43998;SDS011;51319;52.162;5.302;2023-05-10T07:04:58;35.50;;;17.65;;
43998;SDS011;51319;52.162;5.302;2023-05-10T07:07:28;31.80;;;16.77;;
43998;SDS011;51319;52.162;5.302;2023-05-10T07:09:55;31.92;;;18.83;;
43998;SDS011;51319;52.162;5.302;2023-05-10T07:12:24;29.00;;;18.33;;
43998;SDS011;51319;52.162;5.302;2023-05-10T07:14:51;30.75;;;18.25;;
43998;SDS011;51319;52.162;5.302;2023-05-10T07:17:18;35.83;;;17.25;;
43998;SDS011;51319;52.162;5.302;2023-05-10T07:19:45;29.23;;;16.10;;
43998;SDS011;51319;52.162;5.302;2023-05-10T07:22:12;28.52;;;17.38;;
43998;SDS011;51319;52.162;5.302;2023-05-10T07:24:39;30.80;;;17.63;;
43998;SDS011;51319;52.162;5.302;2023-05-10T07:27:06;25.98;;;15.90;;
43998;SDS011;51319;52.162;5.302;2023-05-10T07:29:34;31.00;;;16.92;;
43998;SDS011;51319;52.162;5.302;2023-05-10T07:32:01;27.65;;;15.90;;
43998;SDS011;51319;52.162;5.302;2023-05-10T07:34:28;24.35;;;15.23;;
43998;SDS011;51319;52.162;5.302;2023-05-10T07:36:58;24.15;;;15.23;;
43998;SDS011;51319;52.162;5.302;2023-05-10T07:39:26;26.42;;;15.93;;
43998;SDS011;51319;52.162;5.302;2023-05-10T07:41:54;34.40;;;15.82;;
43998;SDS011;51319;52.162;5.302;2023-05-10T07:44:21;28.73;;;15.48;;
43998;SDS011;51319;52.162;5.302;2023-05-10T07:46:48;28.83;;;16.00;;
43998;SDS011;51319;52.162;5.302;2023-05-10T07:49:15;28.63;;;16.23;;
43998;SDS011;51319;52.162;5.302;2023-05-10T07:51:42;27.75;;;14.65;;
43998;SDS011;51319;52.162;5.302;2023-05-10T07:54:09;24.15;;;15.15;;
43998;SDS011;51319;52.162;5.302;2023-05-10T07:56:36;31.45;;;16.92;;
43998;SDS011;51319;52.162;5.302;2023-05-10T07:59:04;27.40;;;17.10;;
43998;SDS011;51319;52.162;5.302;2023-05-10T08:01:33;28.63;;;17.45;;
43998;SDS011;51319;52.162;5.302;2023-05-10T08:04:00;30.35;;;17.67;;
43998;SDS011;51319;52.162;5.302;2023-05-10T08:06:28;33.67;;;17.80;;
43998;SDS011;51319;52.162;5.302;2023-05-10T08:08:56;28.13;;;17.75;;
43998;SDS011;51319;52.162;5.302;2023-05-10T08:11:23;31.20;;;18.42;;
43998;SDS011;51319;52.162;5.302;2023-05-10T08:13:53;30.13;;;17.15;;
43998;SDS011;51319;52.162;5.302;2023-05-10T08:16:20;26.17;;;16.30;;
43998;SDS011;51319;52.162;5.302;2023-05-10T08:18:47;26.45;;;17.30;;
43998;SDS011;51319;52.162;5.302;2023-05-10T08:21:15;28.80;;;17.95;;
43998;SDS011;51319;52.162;5.302;2023-05-10T08:23:42;26.48;;;17.45;;
43998;SDS011;51319;52.162;5.302;2023-05-10T08:26:12;29.80;;;18.27;;
43998;SDS011;51319;52.162;5.302;2023-05-10T08:28:39;23.98;;;16.23;;
43998;SDS011;51319;52.162;5.302;2023-05-10T08:31:06;24.67;;;16.58;;
43998;SDS011;51319;52.162;5.302;2023-05-10T08:33:34;25.60;;;15.50;;
43998;SDS011;51319;52.162;5.302;2023-05-10T08:36:02;27.40;;;16.98;;
43998;SDS011;51319;52.162;5.302;2023-05-10T08:38:29;24.17;;;15.43;;
43998;SDS011;51319;52.162;5.302;2023-05-10T08:40:56;24.02;;;15.85;;
43998;SDS011;51319;52.162;5.302;2023-05-10T08:43:28;25.13;;;15.98;;
43998;SDS011;51319;52.162;5.302;2023-05-10T08:45:56;24.77;;;15.05;;
43998;SDS011;51319;52.162;5.302;2023-05-10T08:48:30;19.45;;;14.38;;
43998;SDS011;51319;52.162;5.302;2023-05-10T08:51:00;19.45;;;13.52;;
43998;SDS011;51319;52.162;5.302;2023-05-10T08:53:29;23.52;;;14.45;;
43998;SDS011;51319;52.162;5.302;2023-05-10T08:56:00;24.73;;;14.10;;
43998;SDS011;51319;52.162;5.302;2023-05-10T08:58:28;22.83;;;13.45;;
43998;SDS011;51319;52.162;5.302;2023-05-10T09:00:55;19.55;;;13.07;;
43998;SDS011;51319;52.162;5.302;2023-05-10T09:03:23;17.20;;;11.57;;
43998;SDS011;51319;52.162;5.302;2023-05-10T09:05:50;17.73;;;11.65;;
43998;SDS011;51319;52.162;5.302;2023-05-10T09:08:17;16.23;;;11.65;;
43998;SDS011;51319;52.162;5.302;2023-05-10T09:10:44;21.52;;;11.82;;
43998;SDS011;51319;52.162;5.302;2023-05-10T09:13:13;19.50;;;10.75;;
43998;SDS011;51319;52.162;5.302;2023-05-10T09:15:43;12.23;;;8.73;;
43998;SDS011;51319;52.162;5.302;2023-05-10T09:18:11;11.85;;;9.30;;
43998;SDS011;51319;52.162;5.302;2023-05-10T09:20:38;14.40;;;10.32;;
43998;SDS011;51319;52.162;5.302;2023-05-10T09:23:10;13.73;;;9.05;;
43998;SDS011;51319;52.162;5.302;2023-05-10T09:25:37;12.10;;;7.80;;
43998;SDS011;51319;52.162;5.302;2023-05-10T09:28:08;13.77;;;8.25;;
43998;SDS011;51319;52.162;5.302;2023-05-10T09:30:35;8.73;;;6.90;;
43998;SDS011;51319;52.162;5.302;2023-05-10T09:33:03;9.75;;;7.32;;
43998;SDS011;51319;52.162;5.302;2023-05-10T09:35:30;9.80;;;7.13;;
43998;SDS011;51319;52.162;5.302;2023-05-10T09:38:00;11.60;;;8.13;;
43998;SDS011;51319;52.162;5.302;2023-05-10T09:40:29;9.10;;;6.95;;
43998;SDS011;51319;52.162;5.302;2023-05-10T09:42:58;15.85;;;6.95;;
43998;SDS011;51319;52.162;5.302;2023-05-10T09:45:29;12.90;;;7.55;;
43998;SDS011;51319;52.162;5.302;2023-05-10T09:47:58;12.43;;;7.70;;
43998;SDS011;51319;52.162;5.302;2023-05-10T09:50:27;12.32;;;7.40;;
43998;SDS011;51319;52.162;5.302;2023-05-10T09:55:25;15.45;;;9.70;;
43998;SDS011;51319;52.162;5.302;2023-05-10T09:58:06;9.30;;;6.93;;
43998;SDS011;51319;52.162;5.302;2023-05-10T10:00:37;9.90;;;7.15;;
43998;SDS011;51319;52.162;5.302;2023-05-10T10:03:42;12.60;;;7.00;;
43998;SDS011;51319;52.162;5.302;2023-05-10T10:06:07;9.23;;;6.75;;
43998;SDS011;51319;52.162;5.302;2023-05-10T10:08:51;10.68;;;7.43;;
43998;SDS011;51319;52.162;5.302;2023-05-10T10:11:22;13.80;;;6.78;;
43998;SDS011;51319;52.162;5.302;2023-05-10T10:13:50;13.95;;;7.63;;
43998;SDS011;51319;52.162;5.302;2023-05-10T10:16:17;8.95;;;7.68;;
43998;SDS011;51319;52.162;5.302;2023-05-10T10:18:44;9.93;;;7.78;;
43998;SDS011;51319;52.162;5.302;2023-05-10T10:21:12;11.88;;;7.68;;
43998;SDS011;51319;52.162;5.302;2023-05-10T10:23:41;11.38;;;7.97;;
43998;SDS011;51319;52.162;5.302;2023-05-10T10:26:08;12.30;;;7.97;;
43998;SDS011;51319;52.162;5.302;2023-05-10T10:31:17;11.32;;;7.75;;
43998;SDS011;51319;52.162;5.302;2023-05-10T10:36:25;13.27;;;6.55;;
43998;SDS011;51319;52.162;5.302;2023-05-10T10:41:32;13.38;;;6.95;;
43998;SDS011;51319;52.162;5.302;2023-05-10T10:47:01;9.82;;;7.18;;
43998;SDS011;51319;52.162;5.302;2023-05-10T10:49:32;10.73;;;7.22;;
43998;SDS011;51319;52.162;5.302;2023-05-10T10:54:53;8.82;;;6.65;;
43998;SDS011;51319;52.162;5.302;2023-05-10T10:58:12;10.55;;;6.75;;
43998;SDS011;51319;52.162;5.302;2023-05-10T11:00:27;11.35;;;6.88;;
43998;SDS011;51319;52.162;5.302;2023-05-10T11:03:12;12.73;;;7.50;;
43998;SDS011;51319;52.162;5.302;2023-05-10T11:05:47;12.70;;;7.10;;
43998;SDS011;51319;52.162;5.302;2023-05-10T11:08:20;8.80;;;6.00;;
43998;SDS011;51319;52.162;5.302;2023-05-10T11:13:47;8.55;;;5.47;;
43998;SDS011;51319;52.162;5.302;2023-05-10T11:16:20;11.70;;;5.28;;
43998;SDS011;51319;52.162;5.302;2023-05-10T11:21:31;5.80;;;4.72;;
43998;SDS011;51319;52.162;5.302;2023-05-10T11:23:59;10.70;;;4.90;;
43998;SDS011;51319;52.162;5.302;2023-05-10T11:26:32;8.23;;;5.05;;
43998;SDS011;51319;52.162;5.302;2023-05-10T11:29:00;10.30;;;4.80;;
43998;SDS011;51319;52.162;5.302;2023-05-10T11:31:29;9.52;;;5.25;;
43998;SDS011;51319;52.162;5.302;2023-05-10T11:33:57;9.13;;;4.35;;
43998;SDS011;51319;52.162;5.302;2023-05-10T11:36:25;7.40;;;4.10;;
43998;SDS011;51319;52.162;5.302;2023-05-10T11:38:54;8.70;;;4.68;;
43998;SDS011;51319;52.162;5.302;2023-05-10T11:41:23;7.35;;;3.95;;
43998;SDS011;51319;52.162;5.302;2023-05-10T11:43:51;8.32;;;4.53;;
43998;SDS011;51319;52.162;5.302;2023-05-10T11:46:20;10.07;;;4.82;;
43998;SDS011;51319;52.162;5.302;2023-05-10T11:48:49;10.35;;;4.93;;
43998;SDS011;51319;52.162;5.302;2023-05-10T11:51:21;6.13;;;4.95;;
43998;SDS011;51319;52.162;5.302;2023-05-10T11:53:50;6.65;;;5.32;;
43998;SDS011;51319;52.162;5.302;2023-05-10T11:56:19;9.73;;;6.05;;
43998;SDS011;51319;52.162;5.302;2023-05-10T11:58:54;9.13;;;5.50;;
43998;SDS011;51319;52.162;5.302;2023-05-10T12:01:23;10.88;;;5.28;;
43998;SDS011;51319;52.162;5.302;2023-05-10T12:03:51;10.88;;;5.30;;
43998;SDS011;51319;52.162;5.302;2023-05-10T12:06:20;8.15;;;5.63;;
43998;SDS011;51319;52.162;5.302;2023-05-10T12:08:47;7.03;;;4.93;;
43998;SDS011;51319;52.162;5.302;2023-05-10T12:11:18;5.20;;;3.72;;
43998;SDS011;51319;52.162;5.302;2023-05-10T12:13:47;6.95;;;4.85;;
43998;SDS011;51319;52.162;5.302;2023-05-10T12:16:16;8.55;;;4.32;;
43998;SDS011;51319;52.162;5.302;2023-05-10T12:18:48;6.03;;;4.15;;
43998;SDS011;51319;52.162;5.302;2023-05-10T12:21:20;5.72;;;4.05;;
43998;SDS011;51319;52.162;5.302;2023-05-10T12:23:51;7.57;;;3.83;;
43998;SDS011;51319;52.162;5.302;2023-05-10T12:26:22;4.80;;;3.42;;
43998;SDS011;51319;52.162;5.302;2023-05-10T12:28:51;6.03;;;3.40;;
43998;SDS011;51319;52.162;5.302;2023-05-10T12:31:18;3.35;;;2.78;;
43998;SDS011;51319;52.162;5.302;2023-05-10T12:33:46;3.03;;;2.10;;
43998;SDS011;51319;52.162;5.302;2023-05-10T12:36:14;4.35;;;2.50;;
43998;SDS011;51319;52.162;5.302;2023-05-10T12:38:42;5.40;;;2.53;;
43998;SDS011;51319;52.162;5.302;2023-05-10T12:41:11;3.45;;;1.92;;
43998;SDS011;51319;52.162;5.302;2023-05-10T12:43:39;4.65;;;2.15;;
43998;SDS011;51319;52.162;5.302;2023-05-10T12:46:10;4.72;;;2.65;;
43998;SDS011;51319;52.162;5.302;2023-05-10T12:48:39;5.43;;;1.90;;
43998;SDS011;51319;52.162;5.302;2023-05-10T12:51:07;3.40;;;2.25;;
43998;SDS011;51319;52.162;5.302;2023-05-10T12:53:35;5.65;;;2.33;;
43998;SDS011;51319;52.162;5.302;2023-05-10T12:56:03;4.13;;;2.65;;
43998;SDS011;51319;52.162;5.302;2023-05-10T12:58:30;5.65;;;2.60;;
43998;SDS011;51319;52.162;5.302;2023-05-10T13:01:01;4.60;;;2.17;;
43998;SDS011;51319;52.162;5.302;2023-05-10T13:03:28;6.63;;;3.10;;
43998;SDS011;51319;52.162;5.302;2023-05-10T13:05:55;7.57;;;3.17;;
43998;SDS011;51319;52.162;5.302;2023-05-10T13:08:22;8.77;;;4.90;;
43998;SDS011;51319;52.162;5.302;2023-05-10T13:10:49;11.07;;;6.32;;
43998;SDS011;51319;52.162;5.302;2023-05-10T13:13:16;11.77;;;7.70;;
43998;SDS011;51319;52.162;5.302;2023-05-10T13:15:44;14.00;;;8.32;;
43998;SDS011;51319;52.162;5.302;2023-05-10T13:18:11;15.60;;;8.10;;
43998;SDS011;51319;52.162;5.302;2023-05-10T13:20:38;10.25;;;6.95;;
43998;SDS011;51319;52.162;5.302;2023-05-10T13:23:05;13.43;;;7.53;;
43998;SDS011;51319;52.162;5.302;2023-05-10T13:25:32;14.23;;;7.90;;
43998;SDS011;51319;52.162;5.302;2023-05-10T13:28:00;16.02;;;8.63;;
43998;SDS011;51319;52.162;5.302;2023-05-10T13:30:28;15.45;;;8.82;;
43998;SDS011;51319;52.162;5.302;2023-05-10T13:32:55;16.38;;;10.10;;
43998;SDS011;51319;52.162;5.302;2023-05-10T13:35:22;16.88;;;10.63;;
43998;SDS011;51319;52.162;5.302;2023-05-10T13:37:49;18.80;;;11.02;;
43998;SDS011;51319;52.162;5.302;2023-05-10T13:40:16;15.07;;;10.02;;
43998;SDS011;51319;52.162;5.302;2023-05-10T13:42:43;18.20;;;11.02;;
43998;SDS011;51319;52.162;5.302;2023-05-10T13:45:12;18.45;;;10.75;;
43998;SDS011;51319;52.162;5.302;2023-05-10T13:47:39;20.30;;;11.80;;
43998;SDS011;51319;52.162;5.302;2023-05-10T13:50:07;22.63;;;11.75;;
43998;SDS011;51319;52.162;5.302;2023-05-10T13:52:34;18.25;;;10.75;;
43998;SDS011;51319;52.162;5.302;2023-05-10T13:55:01;18.17;;;11.02;;
43998;SDS011;51319;52.162;5.302;2023-05-10T13:57:29;16.05;;;10.70;;
43998;SDS011;51319;52.162;5.302;2023-05-10T13:59:56;18.10;;;10.57;;
43998;SDS011;51319;52.162;5.302;2023-05-10T14:02:24;16.25;;;10.30;;
43998;SDS011;51319;52.162;5.302;2023-05-10T14:04:52;19.15;;;10.82;;
43998;SDS011;51319;52.162;5.302;2023-05-10T14:07:18;13.20;;;9.50;;
43998;SDS011;51319;52.162;5.302;2023-05-10T14:09:46;16.60;;;9.93;;
43998;SDS011;51319;52.162;5.302;2023-05-10T14:12:13;18.10;;;10.57;;
43998;SDS011;51319;52.162;5.302;2023-05-10T14:14:40;17.08;;;11.25;;
43998;SDS011;51319;52.162;5.302;2023-05-10T14:17:07;15.80;;;9.38;;
43998;SDS011;51319;52.162;5.302;2023-05-10T14:19:37;14.77;;;8.60;;
43998;SDS011;51319;52.162;5.302;2023-05-10T14:22:05;12.30;;;8.75;;
43998;SDS011;51319;52.162;5.302;2023-05-10T14:24:32;13.70;;;8.85;;
43998;SDS011;51319;52.162;5.302;2023-05-10T14:26:59;18.15;;;10.25;;
43998;SDS011;51319;52.162;5.302;2023-05-10T14:29:26;13.65;;;8.45;;
43998;SDS011;51319;52.162;5.302;2023-05-10T14:31:53;13.55;;;8.30;;
43998;SDS011;51319;52.162;5.302;2023-05-10T14:34:20;17.23;;;8.73;;
43998;SDS011;51319;52.162;5.302;2023-05-10T14:36:47;19.88;;;11.50;;
43998;SDS011;51319;52.162;5.302;2023-05-10T14:39:14;15.00;;;9.30;;
43998;SDS011;51319;52.162;5.302;2023-05-10T14:41:41;15.93;;;9.63;;
43998;SDS011;51319;52.162;5.302;2023-05-10T14:44:10;13.13;;;9.05;;
43998;SDS011;51319;52.162;5.302;2023-05-10T14:46:38;33.17;;;22.17;;
43998;SDS011;51319;52.162;5.302;2023-05-10T14:49:05;24.42;;;17.00;;
43998;SDS011;51319;52.162;5.302;2023-05-10T14:51:32;17.77;;;10.73;;
43998;SDS011;51319;52.162;5.302;2023-05-10T14:53:59;11.73;;;8.45;;
43998;SDS011;51319;52.162;5.302;2023-05-10T14:56:26;15.57;;;8.88;;
43998;SDS011;51319;52.162;5.302;2023-05-10T14:58:54;13.57;;;8.77;;
43998;SDS011;51319;52.162;5.302;2023-05-10T15:01:22;14.07;;;8.77;;
43998;SDS011;51319;52.162;5.302;2023-05-10T15:03:50;12.98;;;9.45;;
43998;SDS011;51319;52.162;5.302;2023-05-10T15:06:20;10.95;;;8.57;;
43998;SDS011;51319;52.162;5.302;2023-05-10T15:08:52;13.50;;;8.95;;
43998;SDS011;51319;52.162;5.302;2023-05-10T15:11:19;14.23;;;9.88;;